sensor_id;sensor_type;location;lat;lon;timestamp;temperature;humidity
7958;DHT22;4024;52.172;5.378;2023-03-02T00:01:03;4.20;99.90
7958;DHT22;4024;52.172;5.378;2023-03-02T00:03:30;4.20;99.90
7958;DHT22;4024;52.172;5.378;2023-03-02T00:06:09;4.20;99.90
7958;DHT22;4024;52.172;5.378;2023-03-02T00:08:35;4.20;99.90
7958;DHT22;4024;52.172;5.378;2023-03-02T00:11:02;4.20;99.90
7958;DHT22;4024;52.172;5.378;2023-03-02T00:13:29;4.20;99.90
7958;DHT22;4024;52.172;5.378;2023-03-02T00:15:55;4.10;99.90
7958;DHT22;4024;52.172;5.378;2023-03-02T00:18:22;4.20;99.90
7958;DHT22;4024;52.172;5.378;2023-03-02T00:20:47;4.20;99.90
7958;DHT22;4024;52.172;5.378;2023-03-02T00:23:14;4.20;99.90
7958;DHT22;4024;52.172;5.378;2023-03-02T00:25:40;4.10;99.90
7958;DHT22;4024;52.172;5.378;2023-03-02T00:28:06;4.20;99.90
7958;DHT22;4024;52.172;5.378;2023-03-02T00:30:31;4.20;99.90
7958;DHT22;4024;52.172;5.378;2023-03-02T00:32:57;4.20;99.90
7958;DHT22;4024;52.172;5.378;2023-03-02T00:35:25;4.20;99.90
7958;DHT22;4024;52.172;5.378;2023-03-02T00:37:54;4.20;99.90
7958;DHT22;4024;52.172;5.378;2023-03-02T00:40:19;4.20;99.90
7958;DHT22;4024;52.172;5.378;2023-03-02T00:42:45;4.20;99.90
7958;DHT22;4024;52.172;5.378;2023-03-02T00:45:11;4.20;99.90
7958;DHT22;4024;52.172;5.378;2023-03-02T00:47:37;4.10;99.90
7958;DHT22;4024;52.172;5.378;2023-03-02T00:50:04;4.10;99.90
7958;DHT22;4024;52.172;5.378;2023-03-02T00:52:31;4.10;99.90
7958;DHT22;4024;52.172;5.378;2023-03-02T00:54:57;4.10;99.90
7958;DHT22;4024;52.172;5.378;2023-03-02T00:57:23;4.10;99.90
7958;DHT22;4024;52.172;5.378;2023-03-02T00:59:48;4.00;99.90
7958;DHT22;4024;52.172;5.378;2023-03-02T01:02:14;4.00;99.90
7958;DHT22;4024;52.172;5.378;2023-03-02T01:04:41;4.00;99.90
7958;DHT22;4024;52.172;5.378;2023-03-02T01:07:12;3.90;99.90
7958;DHT22;4024;52.172;5.378;2023-03-02T01:09:39;3.90;99.90
7958;DHT22;4024;52.172;5.378;2023-03-02T01:12:05;3.90;99.90
7958;DHT22;4024;52.172;5.378;2023-03-02T01:14:42;3.90;99.90
7958;DHT22;4024;52.172;5.378;2023-03-02T01:17:09;3.80;99.90
7958;DHT22;4024;52.172;5.378;2023-03-02T01:19:35;3.90;99.90
7958;DHT22;4024;52.172;5.378;2023-03-02T01:22:01;3.90;99.90
7958;DHT22;4024;52.172;5.378;2023-03-02T01:24:27;3.80;99.90
7958;DHT22;4024;52.172;5.378;2023-03-02T01:26:53;3.80;99.90
7958;DHT22;4024;52.172;5.378;2023-03-02T01:29:18;3.80;99.90
7958;DHT22;4024;52.172;5.378;2023-03-02T01:31:44;3.80;99.90
7958;DHT22;4024;52.172;5.378;2023-03-02T01:34:10;3.80;99.90
7958;DHT22;4024;52.172;5.378;2023-03-02T01:36:36;3.80;99.90
7958;DHT22;4024;52.172;5.378;2023-03-02T01:39:02;3.80;99.90
7958;DHT22;4024;52.172;5.378;2023-03-02T01:41:28;3.80;99.90
7958;DHT22;4024;52.172;5.378;2023-03-02T01:43:53;3.80;99.90
7958;DHT22;4024;52.172;5.378;2023-03-02T01:46:27;3.70;99.90
7958;DHT22;4024;52.172;5.378;2023-03-02T01:49:06;3.70;99.90
7958;DHT22;4024;52.172;5.378;2023-03-02T01:51:41;3.70;99.90
7958;DHT22;4024;52.172;5.378;2023-03-02T01:54:10;3.70;99.90
7958;DHT22;4024;52.172;5.378;2023-03-02T01:56:55;3.70;99.90
7958;DHT22;4024;52.172;5.378;2023-03-02T01:59:23;3.70;99.90
7958;DHT22;4024;52.172;5.378;2023-03-02T02:01:53;3.60;99.90
7958;DHT22;4024;52.172;5.378;2023-03-02T02:04:22;3.70;99.90
7958;DHT22;4024;52.172;5.378;2023-03-02T02:07:17;3.60;99.90
7958;DHT22;4024;52.172;5.378;2023-03-02T02:09:46;3.60;99.90
7958;DHT22;4024;52.172;5.378;2023-03-02T02:12:14;3.60;99.90
7958;DHT22;4024;52.172;5.378;2023-03-02T02:14:49;3.60;99.90
7958;DHT22;4024;52.172;5.378;2023-03-02T02:17:17;3.60;99.90
7958;DHT22;4024;52.172;5.378;2023-03-02T02:20:03;3.60;99.90
7958;DHT22;4024;52.172;5.378;2023-03-02T02:28:06;3.60;99.90
7958;DHT22;4024;52.172;5.378;2023-03-02T02:30:36;3.60;99.90
7958;DHT22;4024;52.172;5.378;2023-03-02T02:33:04;3.60;99.90
7958;DHT22;4024;52.172;5.378;2023-03-02T02:35:32;3.50;99.90
7958;DHT22;4024;52.172;5.378;2023-03-02T02:38:03;3.50;99.90
7958;DHT22;4024;52.172;5.378;2023-03-02T02:40:49;3.50;99.90
7958;DHT22;4024;52.172;5.378;2023-03-02T02:43:17;3.50;99.90
7958;DHT22;4024;52.172;5.378;2023-03-02T02:45:44;3.50;99.90
7958;DHT22;4024;52.172;5.378;2023-03-02T02:48:14;3.50;99.90
7958;DHT22;4024;52.172;5.378;2023-03-02T02:50:41;3.50;99.90
7958;DHT22;4024;52.172;5.378;2023-03-02T02:53:15;3.50;99.90
7958;DHT22;4024;52.172;5.378;2023-03-02T02:55:42;3.50;99.90
7958;DHT22;4024;52.172;5.378;2023-03-02T02:58:42;3.50;99.90
7958;DHT22;4024;52.172;5.378;2023-03-02T03:01:14;3.50;99.90
7958;DHT22;4024;52.172;5.378;2023-03-02T03:03:44;3.40;99.90
7958;DHT22;4024;52.172;5.378;2023-03-02T03:06:17;3.40;99.90
7958;DHT22;4024;52.172;5.378;2023-03-02T03:11:10;3.40;99.90
7958;DHT22;4024;52.172;5.378;2023-03-02T03:13:37;3.30;99.90
7958;DHT22;4024;52.172;5.378;2023-03-02T03:16:05;3.40;99.90
7958;DHT22;4024;52.172;5.378;2023-03-02T03:18:32;3.30;99.90
7958;DHT22;4024;52.172;5.378;2023-03-02T03:20:58;3.30;99.90
7958;DHT22;4024;52.172;5.378;2023-03-02T03:23:23;3.40;99.90
7958;DHT22;4024;52.172;5.378;2023-03-02T03:25:49;3.30;99.90
7958;DHT22;4024;52.172;5.378;2023-03-02T03:28:15;3.30;99.90
7958;DHT22;4024;52.172;5.378;2023-03-02T03:30:41;3.30;99.90
7958;DHT22;4024;52.172;5.378;2023-03-02T03:33:06;3.30;99.90
7958;DHT22;4024;52.172;5.378;2023-03-02T03:35:36;3.30;99.90
7958;DHT22;4024;52.172;5.378;2023-03-02T03:38:03;3.30;99.90
7958;DHT22;4024;52.172;5.378;2023-03-02T03:40:29;3.30;99.90
7958;DHT22;4024;52.172;5.378;2023-03-02T03:43:01;3.30;99.90
7958;DHT22;4024;52.172;5.378;2023-03-02T03:45:27;3.30;99.90
7958;DHT22;4024;52.172;5.378;2023-03-02T03:47:53;3.20;99.90
7958;DHT22;4024;52.172;5.378;2023-03-02T03:50:19;3.20;99.90
7958;DHT22;4024;52.172;5.378;2023-03-02T03:52:45;3.20;99.90
7958;DHT22;4024;52.172;5.378;2023-03-02T03:55:11;3.20;99.90
7958;DHT22;4024;52.172;5.378;2023-03-02T03:57:37;3.20;99.90
7958;DHT22;4024;52.172;5.378;2023-03-02T04:00:08;3.20;99.90
7958;DHT22;4024;52.172;5.378;2023-03-02T04:02:36;3.20;99.90
7958;DHT22;4024;52.172;5.378;2023-03-02T04:05:02;3.20;99.90
7958;DHT22;4024;52.172;5.378;2023-03-02T04:07:32;3.20;99.90
7958;DHT22;4024;52.172;5.378;2023-03-02T04:09:57;3.20;99.90
7958;DHT22;4024;52.172;5.378;2023-03-02T04:12:36;3.10;99.90
7958;DHT22;4024;52.172;5.378;2023-03-02T04:15:03;3.20;99.90
7958;DHT22;4024;52.172;5.378;2023-03-02T04:17:30;3.10;99.90
7958;DHT22;4024;52.172;5.378;2023-03-02T04:19:55;3.10;99.90
7958;DHT22;4024;52.172;5.378;2023-03-02T04:22:21;3.10;99.90
7958;DHT22;4024;52.172;5.378;2023-03-02T04:24:48;3.20;99.90
7958;DHT22;4024;52.172;5.378;2023-03-02T04:27:14;3.10;99.90
7958;DHT22;4024;52.172;5.378;2023-03-02T04:29:40;3.10;99.90
7958;DHT22;4024;52.172;5.378;2023-03-02T04:32:07;3.10;99.90
7958;DHT22;4024;52.172;5.378;2023-03-02T04:34:33;3.10;99.90
7958;DHT22;4024;52.172;5.378;2023-03-02T04:36:58;3.10;99.90
7958;DHT22;4024;52.172;5.378;2023-03-02T04:39:25;3.10;99.90
7958;DHT22;4024;52.172;5.378;2023-03-02T04:41:51;3.10;99.90
7958;DHT22;4024;52.172;5.378;2023-03-02T04:44:18;3.10;99.90
7958;DHT22;4024;52.172;5.378;2023-03-02T04:46:44;3.10;99.90
7958;DHT22;4024;52.172;5.378;2023-03-02T04:49:11;3.10;99.90
7958;DHT22;4024;52.172;5.378;2023-03-02T04:51:40;3.00;99.90
7958;DHT22;4024;52.172;5.378;2023-03-02T04:54:26;3.00;99.90
7958;DHT22;4024;52.172;5.378;2023-03-02T04:56:52;3.00;99.90
7958;DHT22;4024;52.172;5.378;2023-03-02T04:59:23;3.00;99.90
7958;DHT22;4024;52.172;5.378;2023-03-02T05:01:50;3.00;99.90
7958;DHT22;4024;52.172;5.378;2023-03-02T05:04:16;3.00;99.90
7958;DHT22;4024;52.172;5.378;2023-03-02T05:06:42;3.00;99.90
7958;DHT22;4024;52.172;5.378;2023-03-02T05:09:08;3.00;99.90
7958;DHT22;4024;52.172;5.378;2023-03-02T05:11:34;3.00;99.90
7958;DHT22;4024;52.172;5.378;2023-03-02T05:14:02;2.90;99.90
7958;DHT22;4024;52.172;5.378;2023-03-02T05:16:29;2.90;99.90
7958;DHT22;4024;52.172;5.378;2023-03-02T05:18:56;2.90;99.90
7958;DHT22;4024;52.172;5.378;2023-03-02T05:21:23;2.90;99.90
7958;DHT22;4024;52.172;5.378;2023-03-02T05:23:49;2.90;99.90
7958;DHT22;4024;52.172;5.378;2023-03-02T05:26:15;2.90;99.90
7958;DHT22;4024;52.172;5.378;2023-03-02T05:28:41;2.90;99.90
7958;DHT22;4024;52.172;5.378;2023-03-02T05:31:11;2.90;99.90
7958;DHT22;4024;52.172;5.378;2023-03-02T05:33:38;2.90;99.90
7958;DHT22;4024;52.172;5.378;2023-03-02T05:36:04;2.80;99.90
7958;DHT22;4024;52.172;5.378;2023-03-02T05:38:30;2.80;99.90
7958;DHT22;4024;52.172;5.378;2023-03-02T05:40:56;2.80;99.90
7958;DHT22;4024;52.172;5.378;2023-03-02T05:43:21;2.80;99.90
7958;DHT22;4024;52.172;5.378;2023-03-02T05:45:47;2.80;99.90
7958;DHT22;4024;52.172;5.378;2023-03-02T05:48:13;2.80;99.90
7958;DHT22;4024;52.172;5.378;2023-03-02T05:50:39;2.80;99.90
7958;DHT22;4024;52.172;5.378;2023-03-02T05:53:05;2.80;99.90
7958;DHT22;4024;52.172;5.378;2023-03-02T05:55:31;2.80;99.90
7958;DHT22;4024;52.172;5.378;2023-03-02T05:58:05;2.80;99.90
7958;DHT22;4024;52.172;5.378;2023-03-02T06:00:33;2.80;99.90
7958;DHT22;4024;52.172;5.378;2023-03-02T06:02:58;2.70;99.90
7958;DHT22;4024;52.172;5.378;2023-03-02T06:05:24;2.70;99.90
7958;DHT22;4024;52.172;5.378;2023-03-02T06:07:49;2.70;99.90
7958;DHT22;4024;52.172;5.378;2023-03-02T06:10:15;2.70;99.90
7958;DHT22;4024;52.172;5.378;2023-03-02T06:12:41;2.70;99.90
7958;DHT22;4024;52.172;5.378;2023-03-02T06:15:08;2.70;99.90
7958;DHT22;4024;52.172;5.378;2023-03-02T06:17:34;2.60;99.90
7958;DHT22;4024;52.172;5.378;2023-03-02T06:19:59;2.70;99.90
7958;DHT22;4024;52.172;5.378;2023-03-02T06:22:25;2.60;99.90
7958;DHT22;4024;52.172;5.378;2023-03-02T06:24:51;2.60;99.90
7958;DHT22;4024;52.172;5.378;2023-03-02T06:27:19;2.60;99.90
7958;DHT22;4024;52.172;5.378;2023-03-02T06:29:45;2.60;99.90
7958;DHT22;4024;52.172;5.378;2023-03-02T06:32:10;2.60;99.90
7958;DHT22;4024;52.172;5.378;2023-03-02T06:34:36;2.60;99.90
7958;DHT22;4024;52.172;5.378;2023-03-02T06:37:01;2.50;99.90
7958;DHT22;4024;52.172;5.378;2023-03-02T06:39:27;2.50;99.90
7958;DHT22;4024;52.172;5.378;2023-03-02T06:41:53;2.50;99.90
7958;DHT22;4024;52.172;5.378;2023-03-02T06:44:18;2.50;99.90
7958;DHT22;4024;52.172;5.378;2023-03-02T06:46:44;2.50;99.90
7958;DHT22;4024;52.172;5.378;2023-03-02T06:49:11;2.50;99.90
7958;DHT22;4024;52.172;5.378;2023-03-02T06:51:36;2.50;99.90
7958;DHT22;4024;52.172;5.378;2023-03-02T06:54:03;2.50;99.90
7958;DHT22;4024;52.172;5.378;2023-03-02T06:56:31;2.50;99.90
7958;DHT22;4024;52.172;5.378;2023-03-02T06:58:56;2.50;99.90
7958;DHT22;4024;52.172;5.378;2023-03-02T07:01:22;2.50;99.90
7958;DHT22;4024;52.172;5.378;2023-03-02T07:03:48;2.50;99.90
7958;DHT22;4024;52.172;5.378;2023-03-02T07:06:13;2.50;99.90
7958;DHT22;4024;52.172;5.378;2023-03-02T07:08:40;2.50;99.90
7958;DHT22;4024;52.172;5.378;2023-03-02T07:11:10;2.50;99.90
7958;DHT22;4024;52.172;5.378;2023-03-02T07:13:39;2.50;99.90
7958;DHT22;4024;52.172;5.378;2023-03-02T07:16:09;2.50;99.90
7958;DHT22;4024;52.172;5.378;2023-03-02T07:18:35;2.50;99.90
7958;DHT22;4024;52.172;5.378;2023-03-02T07:21:02;2.60;99.90
7958;DHT22;4024;52.172;5.378;2023-03-02T07:23:28;2.60;99.90
7958;DHT22;4024;52.172;5.378;2023-03-02T07:25:54;2.60;99.90
7958;DHT22;4024;52.172;5.378;2023-03-02T07:28:20;2.60;99.90
7958;DHT22;4024;52.172;5.378;2023-03-02T07:30:51;2.60;99.90
7958;DHT22;4024;52.172;5.378;2023-03-02T07:33:18;2.60;99.90
7958;DHT22;4024;52.172;5.378;2023-03-02T07:35:43;2.60;99.90
7958;DHT22;4024;52.172;5.378;2023-03-02T07:38:09;2.60;99.90
7958;DHT22;4024;52.172;5.378;2023-03-02T07:40:34;2.70;99.90
7958;DHT22;4024;52.172;5.378;2023-03-02T07:43:02;2.70;99.90
7958;DHT22;4024;52.172;5.378;2023-03-02T07:45:27;2.70;99.90
7958;DHT22;4024;52.172;5.378;2023-03-02T07:47:53;2.70;99.90
7958;DHT22;4024;52.172;5.378;2023-03-02T07:50:18;2.80;99.90
7958;DHT22;4024;52.172;5.378;2023-03-02T07:52:44;2.80;99.90
7958;DHT22;4024;52.172;5.378;2023-03-02T07:55:10;2.80;99.90
7958;DHT22;4024;52.172;5.378;2023-03-02T07:57:35;2.80;99.90
7958;DHT22;4024;52.172;5.378;2023-03-02T08:00:02;2.90;99.90
7958;DHT22;4024;52.172;5.378;2023-03-02T08:02:28;2.90;99.90
7958;DHT22;4024;52.172;5.378;2023-03-02T08:04:55;2.90;99.90
7958;DHT22;4024;52.172;5.378;2023-03-02T08:07:20;2.90;99.90
7958;DHT22;4024;52.172;5.378;2023-03-02T08:09:46;2.90;99.90
7958;DHT22;4024;52.172;5.378;2023-03-02T08:12:11;3.00;99.90
7958;DHT22;4024;52.172;5.378;2023-03-02T08:14:37;3.00;99.90
7958;DHT22;4024;52.172;5.378;2023-03-02T08:17:04;3.00;99.90
7958;DHT22;4024;52.172;5.378;2023-03-02T08:19:30;3.10;99.90
7958;DHT22;4024;52.172;5.378;2023-03-02T08:21:56;3.10;99.90
7958;DHT22;4024;52.172;5.378;2023-03-02T08:24:21;3.20;99.90
7958;DHT22;4024;52.172;5.378;2023-03-02T08:26:47;3.20;99.90
7958;DHT22;4024;52.172;5.378;2023-03-02T08:29:12;3.20;99.90
7958;DHT22;4024;52.172;5.378;2023-03-02T08:31:38;3.20;99.90
7958;DHT22;4024;52.172;5.378;2023-03-02T08:34:04;3.20;99.90
7958;DHT22;4024;52.172;5.378;2023-03-02T08:36:30;3.30;99.90
7958;DHT22;4024;52.172;5.378;2023-03-02T08:38:55;3.30;99.90
7958;DHT22;4024;52.172;5.378;2023-03-02T08:41:22;3.40;99.90
7958;DHT22;4024;52.172;5.378;2023-03-02T08:43:48;3.40;99.90
7958;DHT22;4024;52.172;5.378;2023-03-02T08:46:16;3.50;99.90
7958;DHT22;4024;52.172;5.378;2023-03-02T08:48:42;3.50;99.90
7958;DHT22;4024;52.172;5.378;2023-03-02T08:51:13;3.60;99.90
7958;DHT22;4024;52.172;5.378;2023-03-02T08:53:41;3.60;99.90
7958;DHT22;4024;52.172;5.378;2023-03-02T08:56:24;3.70;99.90
7958;DHT22;4024;52.172;5.378;2023-03-02T08:58:51;3.70;99.90
7958;DHT22;4024;52.172;5.378;2023-03-02T09:01:28;3.80;99.90
7958;DHT22;4024;52.172;5.378;2023-03-02T09:03:55;3.80;99.90
7958;DHT22;4024;52.172;5.378;2023-03-02T09:06:22;3.80;99.90
7958;DHT22;4024;52.172;5.378;2023-03-02T09:08:48;3.90;99.90
7958;DHT22;4024;52.172;5.378;2023-03-02T09:11:13;3.90;99.90
7958;DHT22;4024;52.172;5.378;2023-03-02T09:13:39;4.00;99.90
7958;DHT22;4024;52.172;5.378;2023-03-02T09:16:05;4.00;99.90
7958;DHT22;4024;52.172;5.378;2023-03-02T09:18:32;4.10;99.90
7958;DHT22;4024;52.172;5.378;2023-03-02T09:20:58;4.10;99.90
7958;DHT22;4024;52.172;5.378;2023-03-02T09:23:25;4.20;99.90
7958;DHT22;4024;52.172;5.378;2023-03-02T09:25:51;4.20;99.90
7958;DHT22;4024;52.172;5.378;2023-03-02T09:28:17;4.20;99.90
7958;DHT22;4024;52.172;5.378;2023-03-02T09:30:51;4.30;99.90
7958;DHT22;4024;52.172;5.378;2023-03-02T09:33:18;4.30;99.90
7958;DHT22;4024;52.172;5.378;2023-03-02T09:35:44;4.30;99.90
7958;DHT22;4024;52.172;5.378;2023-03-02T09:38:11;4.40;99.90
7958;DHT22;4024;52.172;5.378;2023-03-02T09:46:26;4.50;99.90
7958;DHT22;4024;52.172;5.378;2023-03-02T09:52:01;4.60;99.90
7958;DHT22;4024;52.172;5.378;2023-03-02T09:54:27;4.70;99.90
7958;DHT22;4024;52.172;5.378;2023-03-02T09:56:55;4.70;99.90
7958;DHT22;4024;52.172;5.378;2023-03-02T09:59:37;4.80;99.90
7958;DHT22;4024;52.172;5.378;2023-03-02T10:04:47;4.90;99.90
7958;DHT22;4024;52.172;5.378;2023-03-02T10:07:18;4.90;99.90
7958;DHT22;4024;52.172;5.378;2023-03-02T10:09:46;5.00;99.90
7958;DHT22;4024;52.172;5.378;2023-03-02T10:14:59;5.10;99.90
7958;DHT22;4024;52.172;5.378;2023-03-02T10:17:51;5.20;99.90
7958;DHT22;4024;52.172;5.378;2023-03-02T10:20:40;5.30;99.90
7958;DHT22;4024;52.172;5.378;2023-03-02T10:26:00;5.60;99.90
7958;DHT22;4024;52.172;5.378;2023-03-02T10:28:35;5.50;99.90
7958;DHT22;4024;52.172;5.378;2023-03-02T10:31:26;5.60;99.90
7958;DHT22;4024;52.172;5.378;2023-03-02T10:33:52;5.60;99.90
7958;DHT22;4024;52.172;5.378;2023-03-02T10:38:49;5.70;99.90
7958;DHT22;4024;52.172;5.378;2023-03-02T10:42:05;5.80;99.90
7958;DHT22;4024;52.172;5.378;2023-03-02T10:44:12;5.80;99.90
7958;DHT22;4024;52.172;5.378;2023-03-02T10:46:44;5.90;99.90
7958;DHT22;4024;52.172;5.378;2023-03-02T10:49:30;5.90;99.90
7958;DHT22;4024;52.172;5.378;2023-03-02T10:55:11;6.00;99.90
7958;DHT22;4024;52.172;5.378;2023-03-02T10:57:40;6.10;99.90
7958;DHT22;4024;52.172;5.378;2023-03-02T11:00:17;6.10;99.90
7958;DHT22;4024;52.172;5.378;2023-03-02T11:03:16;6.20;99.90
7958;DHT22;4024;52.172;5.378;2023-03-02T11:05:44;6.20;99.90
7958;DHT22;4024;52.172;5.378;2023-03-02T11:08:30;6.30;99.90
7958;DHT22;4024;52.172;5.378;2023-03-02T11:11:02;6.30;99.90
7958;DHT22;4024;52.172;5.378;2023-03-02T11:13:35;6.40;99.90
7958;DHT22;4024;52.172;5.378;2023-03-02T11:16:03;6.50;99.90
7958;DHT22;4024;52.172;5.378;2023-03-02T11:18:42;6.60;99.90
7958;DHT22;4024;52.172;5.378;2023-03-02T11:21:13;6.60;99.90
7958;DHT22;4024;52.172;5.378;2023-03-02T11:23:47;6.70;99.90
7958;DHT22;4024;52.172;5.378;2023-03-02T11:26:21;6.70;99.90
7958;DHT22;4024;52.172;5.378;2023-03-02T11:28:57;6.80;99.90
7958;DHT22;4024;52.172;5.378;2023-03-02T11:31:33;6.90;99.90
7958;DHT22;4024;52.172;5.378;2023-03-02T11:34:31;6.90;99.90
7958;DHT22;4024;52.172;5.378;2023-03-02T11:37:21;7.00;99.90
7958;DHT22;4024;52.172;5.378;2023-03-02T11:42:20;7.10;99.90
7958;DHT22;4024;52.172;5.378;2023-03-02T11:44:47;7.10;99.90
7958;DHT22;4024;52.172;5.378;2023-03-02T11:47:13;7.20;99.90
7958;DHT22;4024;52.172;5.378;2023-03-02T11:49:43;7.30;99.90
7958;DHT22;4024;52.172;5.378;2023-03-02T11:52:20;7.30;99.90
7958;DHT22;4024;52.172;5.378;2023-03-02T11:57:27;7.40;99.90
7958;DHT22;4024;52.172;5.378;2023-03-02T11:59:55;7.50;99.90
7958;DHT22;4024;52.172;5.378;2023-03-02T12:02:21;7.50;99.90
7958;DHT22;4024;52.172;5.378;2023-03-02T12:04:47;7.60;99.90
7958;DHT22;4024;52.172;5.378;2023-03-02T12:07:24;7.60;99.90
7958;DHT22;4024;52.172;5.378;2023-03-02T12:10:03;7.60;99.90
7958;DHT22;4024;52.172;5.378;2023-03-02T12:12:45;7.70;99.90
7958;DHT22;4024;52.172;5.378;2023-03-02T12:15:27;7.70;99.90
7958;DHT22;4024;52.172;5.378;2023-03-02T12:17:53;7.70;99.90
7958;DHT22;4024;52.172;5.378;2023-03-02T12:22:44;7.70;99.90
7958;DHT22;4024;52.172;5.378;2023-03-02T12:27:46;7.80;99.90
7958;DHT22;4024;52.172;5.378;2023-03-02T12:32:45;7.90;99.90
7958;DHT22;4024;52.172;5.378;2023-03-02T12:35:23;7.90;99.90
7958;DHT22;4024;52.172;5.378;2023-03-02T12:37:55;7.90;99.90
7958;DHT22;4024;52.172;5.378;2023-03-02T12:46:10;8.10;99.90
7958;DHT22;4024;52.172;5.378;2023-03-02T12:48:56;8.20;99.90
7958;DHT22;4024;52.172;5.378;2023-03-02T12:51:26;8.20;99.90
7958;DHT22;4024;52.172;5.378;2023-03-02T12:54:06;8.30;99.90
7958;DHT22;4024;52.172;5.378;2023-03-02T12:56:32;8.30;99.90
7958;DHT22;4024;52.172;5.378;2023-03-02T12:58:58;8.40;99.90
7958;DHT22;4024;52.172;5.378;2023-03-02T13:01:27;8.40;99.90
7958;DHT22;4024;52.172;5.378;2023-03-02T13:03:53;8.40;99.90
7958;DHT22;4024;52.172;5.378;2023-03-02T13:06:20;8.50;99.90
7958;DHT22;4024;52.172;5.378;2023-03-02T13:08:50;8.60;99.90
7958;DHT22;4024;52.172;5.378;2023-03-02T13:11:32;8.60;99.90
7958;DHT22;4024;52.172;5.378;2023-03-02T13:13:59;8.60;99.90
7958;DHT22;4024;52.172;5.378;2023-03-02T13:16:30;8.70;99.90
7958;DHT22;4024;52.172;5.378;2023-03-02T13:18:59;8.70;99.90
7958;DHT22;4024;52.172;5.378;2023-03-02T13:21:34;8.70;99.90
7958;DHT22;4024;52.172;5.378;2023-03-02T13:24:02;8.80;99.90
7958;DHT22;4024;52.172;5.378;2023-03-02T13:26:33;8.80;99.90
7958;DHT22;4024;52.172;5.378;2023-03-02T13:29:16;8.90;99.90
7958;DHT22;4024;52.172;5.378;2023-03-02T13:31:47;8.90;99.90
7958;DHT22;4024;52.172;5.378;2023-03-02T13:34:21;8.90;99.90
7958;DHT22;4024;52.172;5.378;2023-03-02T13:36:48;8.90;99.90
7958;DHT22;4024;52.172;5.378;2023-03-02T13:39:19;8.90;99.90
7958;DHT22;4024;52.172;5.378;2023-03-02T13:41:57;9.00;99.90
7958;DHT22;4024;52.172;5.378;2023-03-02T13:44:31;9.00;99.90
7958;DHT22;4024;52.172;5.378;2023-03-02T13:46:58;9.00;99.90
7958;DHT22;4024;52.172;5.378;2023-03-02T13:49:32;9.10;99.90
7958;DHT22;4024;52.172;5.378;2023-03-02T13:52:06;9.10;99.90
7958;DHT22;4024;52.172;5.378;2023-03-02T13:54:34;9.10;99.90
7958;DHT22;4024;52.172;5.378;2023-03-02T13:57:02;9.20;99.90
7958;DHT22;4024;52.172;5.378;2023-03-02T13:59:29;9.20;99.90
7958;DHT22;4024;52.172;5.378;2023-03-02T14:01:56;9.20;99.90
7958;DHT22;4024;52.172;5.378;2023-03-02T14:04:22;9.40;99.90
7958;DHT22;4024;52.172;5.378;2023-03-02T14:06:52;9.30;99.90
7958;DHT22;4024;52.172;5.378;2023-03-02T14:09:18;9.40;99.90
7958;DHT22;4024;52.172;5.378;2023-03-02T14:11:47;9.40;99.90
7958;DHT22;4024;52.172;5.378;2023-03-02T14:14:15;9.40;99.90
7958;DHT22;4024;52.172;5.378;2023-03-02T14:16:41;9.50;99.90
7958;DHT22;4024;52.172;5.378;2023-03-02T14:19:11;9.50;99.90
7958;DHT22;4024;52.172;5.378;2023-03-02T14:21:38;9.60;99.90
7958;DHT22;4024;52.172;5.378;2023-03-02T14:24:05;9.60;99.90
7958;DHT22;4024;52.172;5.378;2023-03-02T14:26:42;9.60;99.90
7958;DHT22;4024;52.172;5.378;2023-03-02T14:29:24;9.60;99.90
7958;DHT22;4024;52.172;5.378;2023-03-02T14:31:52;9.70;99.90
7958;DHT22;4024;52.172;5.378;2023-03-02T14:34:17;9.70;99.90
7958;DHT22;4024;52.172;5.378;2023-03-02T14:36:45;9.70;99.90
7958;DHT22;4024;52.172;5.378;2023-03-02T14:41:56;9.70;99.90
7958;DHT22;4024;52.172;5.378;2023-03-02T14:44:22;9.70;99.90
7958;DHT22;4024;52.172;5.378;2023-03-02T14:46:48;9.70;99.90
7958;DHT22;4024;52.172;5.378;2023-03-02T14:49:13;9.80;99.90
7958;DHT22;4024;52.172;5.378;2023-03-02T14:51:40;9.80;99.90
7958;DHT22;4024;52.172;5.378;2023-03-02T14:54:10;9.80;99.90
7958;DHT22;4024;52.172;5.378;2023-03-02T14:56:37;9.80;99.90
7958;DHT22;4024;52.172;5.378;2023-03-02T14:59:02;9.80;99.90
7958;DHT22;4024;52.172;5.378;2023-03-02T15:01:28;9.80;99.90
7958;DHT22;4024;52.172;5.378;2023-03-02T15:03:54;9.80;99.90
7958;DHT22;4024;52.172;5.378;2023-03-02T15:06:27;9.80;99.90
7958;DHT22;4024;52.172;5.378;2023-03-02T15:08:54;9.80;99.90
7958;DHT22;4024;52.172;5.378;2023-03-02T15:11:20;9.80;99.90
7958;DHT22;4024;52.172;5.378;2023-03-02T15:13:45;9.80;99.90
7958;DHT22;4024;52.172;5.378;2023-03-02T15:16:11;9.80;99.90
7958;DHT22;4024;52.172;5.378;2023-03-02T15:18:37;9.80;99.90
7958;DHT22;4024;52.172;5.378;2023-03-02T15:21:05;9.80;99.90
7958;DHT22;4024;52.172;5.378;2023-03-02T15:23:31;9.80;99.90
7958;DHT22;4024;52.172;5.378;2023-03-02T15:26:01;9.80;99.90
7958;DHT22;4024;52.172;5.378;2023-03-02T15:28:28;9.80;99.90
7958;DHT22;4024;52.172;5.378;2023-03-02T15:30:54;9.80;99.90
7958;DHT22;4024;52.172;5.378;2023-03-02T15:33:20;9.80;99.90
7958;DHT22;4024;52.172;5.378;2023-03-02T15:35:53;9.80;99.90
7958;DHT22;4024;52.172;5.378;2023-03-02T15:38:19;9.80;99.90
7958;DHT22;4024;52.172;5.378;2023-03-02T15:40:45;9.70;99.90
7958;DHT22;4024;52.172;5.378;2023-03-02T15:43:10;9.80;99.90
7958;DHT22;4024;52.172;5.378;2023-03-02T15:45:36;9.70;99.90
7958;DHT22;4024;52.172;5.378;2023-03-02T15:48:03;9.70;99.90
7958;DHT22;4024;52.172;5.378;2023-03-02T15:50:28;9.70;99.90
7958;DHT22;4024;52.172;5.378;2023-03-02T15:52:54;9.70;99.90
7958;DHT22;4024;52.172;5.378;2023-03-02T15:55:22;9.70;99.90
7958;DHT22;4024;52.172;5.378;2023-03-02T15:57:47;9.70;99.90
7958;DHT22;4024;52.172;5.378;2023-03-02T16:00:14;9.70;99.90
7958;DHT22;4024;52.172;5.378;2023-03-02T16:02:40;9.60;99.90
7958;DHT22;4024;52.172;5.378;2023-03-02T16:05:07;9.60;99.90
7958;DHT22;4024;52.172;5.378;2023-03-02T16:07:32;9.60;99.90
7958;DHT22;4024;52.172;5.378;2023-03-02T16:09:58;9.60;99.90
7958;DHT22;4024;52.172;5.378;2023-03-02T16:12:24;9.60;99.90
7958;DHT22;4024;52.172;5.378;2023-03-02T16:14:50;9.50;99.90
7958;DHT22;4024;52.172;5.378;2023-03-02T16:17:16;9.50;99.90
7958;DHT22;4024;52.172;5.378;2023-03-02T16:19:44;9.60;99.90
7958;DHT22;4024;52.172;5.378;2023-03-02T16:22:12;9.50;99.90
7958;DHT22;4024;52.172;5.378;2023-03-02T16:24:38;9.40;99.90
7958;DHT22;4024;52.172;5.378;2023-03-02T16:27:04;9.50;99.90
7958;DHT22;4024;52.172;5.378;2023-03-02T16:29:30;9.40;99.90
7958;DHT22;4024;52.172;5.378;2023-03-02T16:31:56;9.40;99.90
7958;DHT22;4024;52.172;5.378;2023-03-02T16:34:21;9.40;99.90
7958;DHT22;4024;52.172;5.378;2023-03-02T16:36:47;9.40;99.90
7958;DHT22;4024;52.172;5.378;2023-03-02T16:39:13;9.40;99.90
7958;DHT22;4024;52.172;5.378;2023-03-02T16:41:42;9.30;99.90
7958;DHT22;4024;52.172;5.378;2023-03-02T16:44:09;9.30;99.90
7958;DHT22;4024;52.172;5.378;2023-03-02T16:46:38;9.30;99.90
7958;DHT22;4024;52.172;5.378;2023-03-02T16:49:05;9.20;99.90
7958;DHT22;4024;52.172;5.378;2023-03-02T16:51:31;9.20;99.90
7958;DHT22;4024;52.172;5.378;2023-03-02T16:53:57;9.20;99.90
7958;DHT22;4024;52.172;5.378;2023-03-02T16:56:22;9.10;99.90
7958;DHT22;4024;52.172;5.378;2023-03-02T16:58:48;9.10;99.90
7958;DHT22;4024;52.172;5.378;2023-03-02T17:01:17;9.10;99.90
7958;DHT22;4024;52.172;5.378;2023-03-02T17:03:44;9.10;99.90
7958;DHT22;4024;52.172;5.378;2023-03-02T17:06:12;9.00;99.90
7958;DHT22;4024;52.172;5.378;2023-03-02T17:08:38;8.90;99.90
7958;DHT22;4024;52.172;5.378;2023-03-02T17:11:04;8.90;99.90
7958;DHT22;4024;52.172;5.378;2023-03-02T17:13:29;8.90;99.90
7958;DHT22;4024;52.172;5.378;2023-03-02T17:15:56;8.80;99.90
7958;DHT22;4024;52.172;5.378;2023-03-02T17:18:21;8.80;99.90